Time;durP1;ratioP1;P1;durP2;ratioP2;P2;SDS_P1;SDS_P2;PMS_P1;PMS_P2;Temp;Humidity;BMP_temperature;BMP_pressure;BME280_temperature;BME280_humidity;BME280_pressure;Samples;Min_cycle;Max_cycle;Signal;HPM_P1;HPM_P2
2022/01/25 00:33:26;;;;;;;8.45;5.43;;;;;;;16.25;23.37;100357.31;5171100;27;20029;-68
2022/01/25 00:35:51;;;;;;;7.28;5.45;;;;;;;16.27;23.57;100352.66;5170815;27;20239;-70
2022/01/25 00:38:17;;;;;;;7.43;5.60;;;;;;;16.27;23.93;100355.31;5170769;27;20023;-70
2022/01/25 00:40:43;;;;;;;6.18;5.43;;;;;;;16.29;23.82;100345.34;5170760;27;20081;-68
2022/01/25 00:43:08;;;;;;;7.00;5.70;;;;;;;16.29;24.16;100340.00;5170529;27;20014;-71
2022/01/25 00:45:34;;;;;;;6.53;5.63;;;;;;;16.32;23.76;100347.75;5170707;27;20026;-68
2022/01/25 00:48:02;;;;;;;6.18;5.57;;;;;;;16.34;23.66;100340.47;5170624;27;20025;-72
2022/01/25 00:50:36;;;;;;;6.43;4.78;;;;;;;16.36;24.00;100334.97;5170612;27;20108;-66
2022/01/25 00:55:27;;;;;;;8.20;5.22;;;;;;;16.40;23.93;100326.53;5170761;27;20002;-67
2022/01/25 00:57:52;;;;;;;8.32;5.43;;;;;;;16.41;23.94;100314.03;5170312;27;20014;-69
2022/01/25 01:00:18;;;;;;;7.78;5.85;;;;;;;16.42;23.80;100313.06;5163519;27;20018;-67
2022/01/25 01:02:44;;;;;;;7.15;6.32;;;;;;;16.42;23.12;100310.38;5152957;27;20083;-69
2022/01/25 01:05:10;;;;;;;6.53;5.65;;;;;;;16.41;23.20;100304.19;5170164;27;20052;-68
2022/01/25 01:07:35;;;;;;;10.40;6.50;;;;;;;16.47;23.54;100300.09;5170128;27;20018;-67
2022/01/25 01:10:02;;;;;;;6.60;4.97;;;;;;;16.52;23.14;100302.38;5170139;27;20242;-68
2022/01/25 01:31:50;;;;;;;7.05;5.45;;;;;;;16.40;23.38;100269.59;5170095;27;20018;-66
2022/01/25 01:45:10;;;;;;;7.95;5.78;;;;;;;16.40;23.39;100229.53;5190548;27;20226;-67
2022/01/25 01:47:41;;;;;;;7.03;5.72;;;;;;;16.42;23.79;100227.59;5186179;27;20260;-68
2022/01/25 01:50:12;;;;;;;6.30;5.60;;;;;;;16.43;23.87;100223.94;5158775;27;20058;-67
2022/01/25 01:52:38;;;;;;;7.95;5.50;;;;;;;16.44;23.49;100221.09;5169216;27;20019;-69
2022/01/25 01:55:05;;;;;;;7.55;6.18;;;;;;;16.46;23.22;100223.66;5169113;27;20023;-68
2022/01/25 01:57:31;;;;;;;7.57;5.70;;;;;;;16.47;23.55;100211.94;5169289;27;20089;-69
2022/01/25 01:59:57;;;;;;;6.53;5.47;;;;;;;16.47;23.51;100212.81;5169280;27;20231;-72
2022/01/25 02:02:22;;;;;;;7.22;5.88;;;;;;;16.50;23.44;100198.31;5168865;27;20086;-70
2022/01/25 02:04:48;;;;;;;8.07;6.22;;;;;;;16.53;23.56;100197.22;5169160;27;20018;-69
2022/01/25 02:07:13;;;;;;;7.28;6.18;;;;;;;16.53;23.57;100189.19;5167392;27;20093;-68
2022/01/25 02:09:39;;;;;;;6.82;5.60;;;;;;;16.54;23.26;100185.53;5179634;27;20067;-73
2022/01/25 02:12:06;;;;;;;8.27;5.28;;;;;;;16.59;23.24;100191.28;5169102;27;20030;-72
2022/01/25 02:14:35;;;;;;;8.00;6.10;;;;;;;16.66;23.39;100202.22;5169316;27;20033;-71
2022/01/25 02:17:26;;;;;;;8.52;6.00;;;;;;;16.69;23.52;100185.91;5169248;27;20018;-73
2022/01/25 02:22:55;;;;;;;8.45;5.50;;;;;;;16.82;22.46;100186.44;5167043;27;20169;-75
2022/01/25 02:25:21;;;;;;;6.85;5.80;;;;;;;16.87;22.76;100188.66;5169326;27;20046;-69
2022/01/25 02:27:47;;;;;;;7.45;6.05;;;;;;;16.89;22.33;100195.56;5168212;27;20033;-73
2022/01/25 02:30:12;;;;;;;9.60;6.50;;;;;;;16.88;22.38;100190.34;5148531;28;20023;-72
2022/01/25 02:32:38;;;;;;;9.57;8.57;;;;;;;16.88;21.78;100185.84;5157040;27;20018;-73
2022/01/25 02:35:05;;;;;;;8.93;6.03;;;;;;;16.89;21.96;100174.19;5168867;27;20042;-72
2022/01/25 02:37:31;;;;;;;7.65;5.53;;;;;;;16.89;22.32;100176.84;5169024;27;20023;-70
2022/01/25 02:39:57;;;;;;;7.57;6.50;;;;;;;16.91;22.38;100168.69;5167487;27;20038;-72
2022/01/25 02:42:24;;;;;;;7.65;6.22;;;;;;;16.92;22.02;100175.72;5168977;27;20022;-68
2022/01/25 02:44:49;;;;;;;6.57;5.20;;;;;;;16.91;22.79;100171.34;5169125;27;20139;-74
2022/01/25 02:50:00;;;;;;;6.25;5.22;;;;;;;16.91;22.98;100163.31;5169083;27;20025;-71
2022/01/25 02:52:28;;;;;;;5.78;4.38;;;;;;;16.85;23.05;100158.56;5170932;27;20015;-69
2022/01/25 02:54:54;;;;;;;5.88;4.68;;;;;;;16.83;23.29;100157.88;5170925;27;20190;-73
2022/01/25 02:57:19;;;;;;;6.20;5.28;;;;;;;16.79;23.15;100160.00;5172308;27;20033;-71
2022/01/25 02:59:45;;;;;;;7.95;5.82;;;;;;;16.76;22.56;100150.44;5172368;27;20254;-71
2022/01/25 03:02:12;;;;;;;7.18;5.70;;;;;;;16.73;22.50;100145.38;5172299;27;20018;-72
2022/01/25 03:04:38;;;;;;;7.50;6.13;;;;;;;16.71;22.50;100147.34;5172294;27;20025;-72
2022/01/25 03:07:04;;;;;;;8.57;6.20;;;;;;;16.72;22.21;100148.22;5172129;27;20236;-72
2022/01/25 03:09:30;;;;;;;7.72;5.88;;;;;;;16.70;22.48;100143.00;5171820;27;20029;-70
2022/01/25 03:11:57;;;;;;;7.18;5.28;;;;;;;16.70;22.84;100148.34;5171934;27;20035;-72
2022/01/25 03:14:27;;;;;;;6.63;5.32;;;;;;;16.69;22.81;100145.81;5170381;27;21411;-69
2022/01/25 03:19:42;;;;;;;6.93;6.22;;;;;;;16.66;22.15;100149.66;5172258;27;20025;-71
2022/01/25 03:22:42;;;;;;;7.20;5.88;;;;;;;16.66;23.00;100136.28;5171895;27;20267;-71
2022/01/25 03:24:59;;;;;;;6.55;5.05;;;;;;;16.64;22.80;100132.91;5170424;27;20029;-70
2022/01/25 03:27:24;;;;;;;6.88;5.20;;;;;;;16.59;23.27;100127.16;5171747;27;20022;-71
2022/01/25 03:29:50;;;;;;;7.35;5.55;;;;;;;16.61;22.74;100127.84;5171430;27;20042;-71
2022/01/25 03:32:15;;;;;;;7.85;5.72;;;;;;;16.60;22.88;100123.50;5170729;27;20026;-72
2022/01/25 03:34:41;;;;;;;6.85;5.45;;;;;;;16.61;22.99;100122.50;5171630;27;20026;-70
2022/01/25 03:37:06;;;;;;;5.63;4.75;;;;;;;16.62;22.86;100124.19;5171576;27;20039;-70
2022/01/25 03:39:32;;;;;;;6.15;5.00;;;;;;;16.62;23.18;100116.19;5171630;27;20023;-71
2022/01/25 03:41:58;;;;;;;7.85;6.00;;;;;;;16.62;23.04;100109.00;5171533;27;20022;-71
2022/01/25 03:44:24;;;;;;;7.00;5.38;;;;;;;16.63;22.93;100107.19;5171537;27;20050;-70
2022/01/25 03:52:00;;;;;;;6.30;5.53;;;;;;;16.60;22.80;100102.97;5171408;27;20015;-69
2022/01/25 03:54:26;;;;;;;5.47;4.85;;;;;;;16.60;23.38;100102.13;5171312;27;20026;-71
2022/01/25 03:56:52;;;;;;;7.72;5.72;;;;;;;16.60;22.99;100097.63;5171175;27;20023;-70
2022/01/25 03:59:17;;;;;;;7.45;5.53;;;;;;;16.59;23.52;100092.41;5157346;27;20050;-70
2022/01/25 04:01:43;;;;;;;6.53;5.68;;;;;;;16.58;23.53;100088.91;5154007;27;20031;-68
2022/01/25 04:04:13;;;;;;;7.07;5.45;;;;;;;16.58;23.35;100085.41;5169703;27;20029;-70
2022/01/25 04:06:41;;;;;;;6.78;5.78;;;;;;;16.54;23.13;100079.50;5171295;27;20018;-69
2022/01/25 04:09:08;;;;;;;7.38;6.18;;;;;;;16.53;23.04;100075.16;5171283;27;20014;-70
2022/01/25 04:11:34;;;;;;;6.50;5.38;;;;;;;16.53;23.26;100077.81;5171329;27;20054;-69
2022/01/25 04:14:00;;;;;;;7.05;5.60;;;;;;;16.53;23.24;100079.66;5171240;27;20038;-70
2022/01/25 04:16:38;;;;;;;7.22;5.95;;;;;;;16.52;23.14;100075.31;5171387;27;20081;-70
2022/01/25 04:19:17;;;;;;;7.30;6.00;;;;;;;16.49;23.05;100084.44;5171285;27;20041;-70
2022/01/25 04:24:41;;;;;;;7.25;5.57;;;;;;;16.47;23.28;100073.06;5171215;27;20050;-69
2022/01/25 04:27:12;;;;;;;8.32;6.65;;;;;;;16.46;22.94;100064.22;5171142;27;20345;-71
2022/01/25 04:29:37;;;;;;;7.65;6.50;;;;;;;16.47;22.50;100055.22;5171157;27;20019;-70
2022/01/25 04:32:06;;;;;;;7.28;6.18;;;;;;;16.47;22.71;100055.22;5170999;27;20026;-70
2022/01/25 04:53:32;;;;;;;11.02;8.70;;;;;;;16.46;22.83;100040.19;5150068;27;20018;-71
2022/01/25 04:56:20;;;;;;;11.10;9.05;;;;;;;16.46;22.95;100039.34;5148387;27;20011;-69
2022/01/25 04:58:51;;;;;;;9.80;7.82;;;;;;;16.45;22.75;100035.81;5149022;27;20094;-71
2022/01/25 05:01:18;;;;;;;11.55;8.52;;;;;;;16.41;23.01;100033.59;5149616;27;20019;-71
2022/01/25 05:06:21;;;;;;;10.00;7.97;;;;;;;16.41;22.63;100036.25;5166225;27;20019;-70
2022/01/25 05:08:52;;;;;;;12.15;8.55;;;;;;;16.44;22.56;100027.97;5170114;27;20018;-71
2022/01/25 05:11:32;;;;;;;9.82;7.47;;;;;;;16.39;22.25;100031.09;5170016;27;20068;-70
2022/01/25 05:16:48;;;;;;;11.77;9.07;;;;;;;16.37;22.84;100010.84;5170075;27;20022;-70
2022/01/25 05:24:28;;;;;;;10.98;8.00;;;;;;;16.36;22.83;100010.00;5169989;27;20086;-70
2022/01/25 05:26:54;;;;;;;12.07;9.18;;;;;;;16.36;22.57;99993.13;5169957;27;20023;-70
2022/01/25 05:29:20;;;;;;;10.80;7.95;;;;;;;16.35;22.71;99997.63;5169734;27;20021;-70
2022/01/25 05:31:46;;;;;;;11.07;9.25;;;;;;;16.34;22.51;99993.28;5169884;27;20219;-70
2022/01/25 05:34:11;;;;;;;12.20;9.73;;;;;;;16.37;22.50;99987.66;5169645;27;20082;-70
2022/01/25 05:36:39;;;;;;;11.20;9.13;;;;;;;16.39;22.64;99992.84;5166005;27;20030;-70
2022/01/25 05:39:17;;;;;;;13.25;9.77;;;;;;;16.37;22.93;99982.31;5148854;27;20022;-71
2022/01/25 05:41:43;;;;;;;12.65;9.23;;;;;;;16.39;22.86;99980.34;5148870;27;20031;-70
2022/01/25 05:44:21;;;;;;;12.43;9.98;;;;;;;16.39;22.54;99963.47;5149078;27;20039;-69
2022/01/25 05:49:13;;;;;;;12.88;9.50;;;;;;;16.40;22.46;99959.81;5148989;27;20018;-71
2022/01/25 05:51:38;;;;;;;12.82;9.57;;;;;;;16.42;22.41;99965.84;5148847;27;20030;-71
2022/01/25 05:54:04;;;;;;;13.10;9.80;;;;;;;16.41;22.38;99959.63;5148675;27;20084;-71
2022/01/25 05:56:29;;;;;;;13.15;9.45;;;;;;;16.39;22.53;99947.44;5148828;27;20072;-71
2022/01/25 05:58:55;;;;;;;11.68;8.38;;;;;;;16.37;22.67;99952.94;5149527;27;20015;-71
2022/01/25 06:01:20;;;;;;;12.00;9.23;;;;;;;16.41;23.00;99961.47;5169012;27;20041;-71
2022/01/25 06:03:46;;;;;;;11.85;9.52;;;;;;;16.40;22.89;99957.13;5169404;27;20018;-72
2022/01/25 06:06:12;;;;;;;10.65;8.52;;;;;;;16.43;22.96;99956.84;5169511;27;20064;-70
2022/01/25 06:08:38;;;;;;;13.45;9.73;;;;;;;16.44;22.56;99955.84;5167389;27;20026;-71
2022/01/25 06:11:04;;;;;;;12.95;10.82;;;;;;;16.44;22.54;99950.50;5163870;27;20046;-68
2022/01/25 06:13:30;;;;;;;14.70;11.32;;;;;;;16.44;22.71;99942.50;5168989;27;20027;-69
2022/01/25 06:15:57;;;;;;;12.73;9.85;;;;;;;16.43;22.72;99946.97;5168817;27;20071;-71
2022/01/25 06:18:23;;;;;;;13.30;9.85;;;;;;;16.43;22.46;99946.97;5169279;27;20216;-70
2022/01/25 06:20:48;;;;;;;12.32;9.40;;;;;;;16.41;22.47;99940.13;5167910;27;20029;-71
2022/01/25 06:23:14;;;;;;;12.73;10.45;;;;;;;16.43;22.19;99938.97;5169240;27;20036;-69
2022/01/25 06:25:41;;;;;;;12.70;10.30;;;;;;;16.41;22.73;99929.44;5169274;27;20019;-68
2022/01/25 06:28:07;;;;;;;13.57;10.30;;;;;;;16.46;22.42;99936.00;5154198;27;20220;-69
2022/01/25 06:30:33;;;;;;;13.45;10.68;;;;;;;16.46;22.01;99928.00;5172543;27;20048;-68
2022/01/25 06:32:59;;;;;;;13.65;10.15;;;;;;;16.47;22.07;99929.69;5155295;27;20060;-68
2022/01/25 06:35:28;;;;;;;12.80;9.18;;;;;;;16.46;22.14;99927.16;5152473;27;20056;-69
2022/01/25 06:37:54;;;;;;;12.55;8.85;;;;;;;16.45;22.28;99920.97;5152401;27;20038;-69
2022/01/25 06:40:20;;;;;;;11.50;9.38;;;;;;;16.42;22.82;99902.56;5153859;27;20011;-69
2022/01/25 06:42:45;;;;;;;10.27;8.80;;;;;;;16.42;22.58;99894.56;5172518;27;20042;-69
2022/01/25 06:45:17;;;;;;;12.95;9.07;;;;;;;16.45;22.51;99885.41;5173120;27;20002;-69
2022/01/25 06:47:45;;;;;;;11.65;9.52;;;;;;;16.46;22.20;99885.25;5173008;27;20396;-69
2022/01/25 06:50:12;;;;;;;12.82;10.20;;;;;;;16.48;22.46;99879.75;5172948;27;20019;-69
2022/01/25 06:52:40;;;;;;;10.90;9.05;;;;;;;16.50;22.33;99879.63;5170951;27;20231;-69
2022/01/25 06:55:07;;;;;;;10.38;8.30;;;;;;;16.50;22.66;99876.94;5172930;27;20019;-71
2022/01/25 06:57:33;;;;;;;13.00;10.60;;;;;;;16.51;22.16;99863.44;5172888;27;20018;-70
2022/01/25 06:59:59;;;;;;;11.90;9.30;;;;;;;16.52;22.03;99859.78;5152926;27;20221;-70
2022/01/25 07:02:24;;;;;;;10.02;7.55;;;;;;;16.54;22.78;99864.97;5151913;27;20015;-70
2022/01/25 07:04:50;;;;;;;11.13;9.30;;;;;;;16.55;22.35;99870.16;5151932;27;20075;-70
2022/01/25 07:07:15;;;;;;;11.07;8.57;;;;;;;16.57;22.44;99867.31;5151898;27;20022;-70
2022/01/25 07:09:41;;;;;;;11.43;8.82;;;;;;;16.59;22.18;99863.53;5162652;27;20010;-70
2022/01/25 07:12:07;;;;;;;10.60;8.52;;;;;;;16.57;22.60;99862.84;5172442;27;20038;-71
2022/01/25 07:14:32;;;;;;;11.20;9.25;;;;;;;16.59;22.53;99849.31;5172538;27;20026;-71
2022/01/25 07:16:59;;;;;;;9.60;8.23;;;;;;;16.63;22.87;99853.38;5172515;27;20030;-71
2022/01/25 07:19:25;;;;;;;11.48;8.57;;;;;;;16.63;22.83;99856.88;5172459;27;20067;-71
2022/01/25 07:21:52;;;;;;;9.82;7.93;;;;;;;16.65;22.60;99855.88;5172746;27;20106;-71
2022/01/25 07:24:18;;;;;;;11.70;8.40;;;;;;;16.63;22.64;99872.06;5172341;27;20022;-70
2022/01/25 07:26:44;;;;;;;9.95;8.00;;;;;;;16.64;22.64;99871.09;5172249;27;20022;-68
2022/01/25 07:29:09;;;;;;;11.25;8.27;;;;;;;16.67;22.58;99854.75;5170943;27;20070;-69
2022/01/25 07:31:35;;;;;;;12.10;9.15;;;;;;;16.68;22.61;99859.09;5171354;27;20022;-69
2022/01/25 07:34:01;;;;;;;11.38;8.35;;;;;;;16.67;22.55;99857.44;5171971;27;20161;-69
2022/01/25 07:36:26;;;;;;;10.27;7.85;;;;;;;16.71;22.89;99857.97;5171269;27;20018;-69
2022/01/25 07:38:52;;;;;;;8.65;7.20;;;;;;;16.71;22.90;99863.28;5171635;27;20025;-69
2022/01/25 07:41:17;;;;;;;9.00;7.15;;;;;;;16.73;23.01;99862.16;5171951;27;20026;-70
2022/01/25 07:43:43;;;;;;;9.43;7.45;;;;;;;16.74;22.79;99854.97;5153348;27;20023;-69
2022/01/25 07:46:09;;;;;;;9.15;6.85;;;;;;;16.76;23.12;99850.31;5171603;27;20019;-69
2022/01/25 07:48:35;;;;;;;9.68;7.60;;;;;;;16.76;22.80;99836.97;5170691;27;20083;-70
2022/01/25 07:51:01;;;;;;;10.65;7.53;;;;;;;16.77;22.80;99841.28;5171810;27;20015;-69
2022/01/25 07:53:26;;;;;;;10.65;7.97;;;;;;;16.76;22.87;99829.78;5171637;27;20074;-70
2022/01/25 07:55:52;;;;;;;8.27;7.38;;;;;;;16.76;22.63;99824.44;5171754;27;20029;-70
2022/01/25 07:58:17;;;;;;;9.43;7.45;;;;;;;16.76;22.73;99824.44;5172567;27;20030;-70
2022/01/25 08:00:43;;;;;;;8.23;6.72;;;;;;;16.77;22.89;99820.78;5171644;27;20037;-72
2022/01/25 08:03:08;;;;;;;8.95;6.97;;;;;;;16.77;22.38;99820.78;5169507;27;20014;-69
2022/01/25 08:05:34;;;;;;;7.45;6.55;;;;;;;16.76;22.65;99813.75;5171547;27;20021;-70
2022/01/25 08:08:01;;;;;;;8.85;6.43;;;;;;;16.78;22.52;99805.56;5171490;27;20072;-70
2022/01/25 08:10:27;;;;;;;8.43;6.35;;;;;;;16.80;22.79;99805.44;5171345;27;20018;-70
2022/01/25 08:12:53;;;;;;;7.65;6.85;;;;;;;16.81;22.67;99799.91;5171224;27;20042;-69
2022/01/25 08:15:19;;;;;;;8.50;6.78;;;;;;;16.81;22.78;99785.72;5171330;27;20046;-70
2022/01/25 08:17:44;;;;;;;9.68;6.85;;;;;;;16.83;22.67;99781.06;5171286;27;20022;-70
2022/01/25 08:20:11;;;;;;;6.80;5.78;;;;;;;16.83;22.67;99773.06;5171315;27;20173;-70
2022/01/25 08:22:36;;;;;;;8.15;6.63;;;;;;;16.86;22.36;99775.38;5170564;27;20018;-70
2022/01/25 08:25:04;;;;;;;7.78;6.15;;;;;;;16.88;22.68;99766.25;5171235;27;20128;-70
2022/01/25 08:27:30;;;;;;;8.02;6.38;;;;;;;16.89;22.66;99767.06;5171805;27;20074;-71
2022/01/25 08:29:55;;;;;;;7.25;5.60;;;;;;;16.88;22.68;99758.22;5175875;27;20018;-70
2022/01/25 08:32:21;;;;;;;9.75;6.13;;;;;;;16.91;22.85;99757.06;5191888;27;20131;-70
2022/01/25 08:34:47;;;;;;;7.82;6.43;;;;;;;16.96;23.08;99762.81;5181357;27;20018;-69
2022/01/25 08:37:13;;;;;;;7.82;6.57;;;;;;;17.02;22.88;99758.69;5163050;27;20228;-70
2022/01/25 08:39:40;;;;;;;8.35;6.75;;;;;;;17.08;23.04;99750.00;5150103;27;20015;-70
2022/01/25 08:42:07;;;;;;;8.10;6.32;;;;;;;17.15;23.12;99742.19;5154796;27;20019;-69
2022/01/25 08:44:32;;;;;;;7.85;6.10;;;;;;;17.20;23.17;99745.25;5150027;27;20078;-70
2022/01/25 08:46:58;;;;;;;8.70;6.45;;;;;;;17.22;23.27;99744.06;5149789;27;20030;-69
2022/01/25 08:49:25;;;;;;;8.65;6.45;;;;;;;17.30;23.39;99740.59;5149103;27;20255;-69
2022/01/25 08:51:50;;;;;;;9.05;6.60;;;;;;;17.30;23.20;99732.56;5149951;27;20232;-69
2022/01/25 08:54:16;;;;;;;8.00;6.00;;;;;;;17.32;23.06;99737.78;5149672;27;20046;-69
2022/01/25 08:56:42;;;;;;;8.30;6.47;;;;;;;17.33;22.92;99744.81;5149699;27;20117;-70
2022/01/25 08:59:09;;;;;;;8.13;6.53;;;;;;;17.33;22.93;99736.78;5149532;27;20072;-71
2022/01/25 09:01:34;;;;;;;7.78;6.45;;;;;;;17.37;23.39;99736.31;5149581;27;20030;-70
2022/01/25 09:04:01;;;;;;;8.20;6.25;;;;;;;17.39;23.33;99736.97;5149506;27;20074;-69
2022/01/25 09:06:27;;;;;;;7.93;6.43;;;;;;;17.44;23.26;99727.63;5149843;27;20042;-69
2022/01/25 09:09:03;;;;;;;7.75;6.05;;;;;;;17.44;23.23;99715.09;5149222;27;20235;-68
2022/01/25 09:11:29;;;;;;;7.60;5.78;;;;;;;17.45;23.27;99721.28;5149232;27;20295;-68
2022/01/25 09:13:55;;;;;;;6.20;5.53;;;;;;;17.46;23.50;99717.59;5163200;27;20042;-69
2022/01/25 09:16:21;;;;;;;6.68;5.20;;;;;;;17.46;23.60;99713.09;5170050;27;20010;-69
2022/01/25 09:18:47;;;;;;;7.00;5.38;;;;;;;17.47;23.56;99705.91;5169958;27;20020;-68
2022/01/25 09:21:12;;;;;;;8.27;6.30;;;;;;;17.48;23.32;99699.56;5170012;27;20057;-68
2022/01/25 09:23:38;;;;;;;6.82;5.50;;;;;;;17.51;23.60;99684.00;5169872;27;20128;-69
2022/01/25 09:26:04;;;;;;;6.95;5.93;;;;;;;17.55;23.57;99684.53;5169980;27;20037;-69
2022/01/25 09:28:30;;;;;;;7.15;5.45;;;;;;;17.60;23.16;99679.53;5169800;27;20014;-69
2022/01/25 09:30:56;;;;;;;6.13;5.03;;;;;;;17.60;23.55;99676.84;5169789;27;20160;-68
2022/01/25 09:33:22;;;;;;;5.93;4.78;;;;;;;17.61;23.38;99678.53;5169655;27;20021;-69
2022/01/25 09:35:49;;;;;;;7.05;5.45;;;;;;;17.60;23.25;99674.16;5169712;27;20184;-70
2022/01/25 09:38:15;;;;;;;6.70;5.43;;;;;;;17.64;23.21;99680.06;5169609;27;20023;-70
2022/01/25 09:40:40;;;;;;;6.80;5.75;;;;;;;17.67;23.08;99669.00;5167899;27;20078;-66
2022/01/25 09:43:06;;;;;;;6.30;4.85;;;;;;;17.69;22.73;99667.84;5130086;27;20079;-65
2022/01/25 09:45:33;;;;;;;5.72;4.30;;;;;;;17.66;23.15;99660.16;5148981;27;20085;-67
2022/01/25 09:47:58;;;;;;;5.10;4.35;;;;;;;17.61;23.20;99659.78;5148616;27;20030;-65
2022/01/25 09:50:24;;;;;;;6.13;4.65;;;;;;;17.58;23.37;99649.41;5148732;27;20019;-65
2022/01/25 09:52:51;;;;;;;6.68;4.50;;;;;;;17.59;23.71;99636.91;5156445;27;20019;-65
2022/01/25 09:55:21;;;;;;;6.82;5.10;;;;;;;17.57;23.59;99642.41;5169047;27;20019;-65
2022/01/25 09:57:47;;;;;;;5.47;4.88;;;;;;;17.58;23.02;99632.53;5168021;27;20283;-64
2022/01/25 10:00:17;;;;;;;7.60;4.82;;;;;;;17.69;23.11;99627.72;5167576;27;20045;-65
2022/01/25 10:02:59;;;;;;;3.33;2.80;;;;;;;17.67;23.56;99626.19;5169226;27;20031;-65
2022/01/25 10:05:31;;;;;;;7.47;4.28;;;;;;;17.63;24.03;99611.50;5169080;27;20023;-65
2022/01/25 10:08:02;;;;;;;6.80;4.72;;;;;;;17.67;23.40;99607.47;5167464;27;20030;-65
2022/01/25 10:10:30;;;;;;;5.65;4.60;;;;;;;17.71;23.40;99606.13;5154290;27;20212;-65
2022/01/25 10:13:17;;;;;;;5.15;4.55;;;;;;;17.74;23.04;99589.75;5168886;27;20038;-65
2022/01/25 10:15:48;;;;;;;4.88;4.28;;;;;;;17.82;23.34;99597.78;5132251;28;20098;-66
2022/01/25 10:18:15;;;;;;;4.60;3.90;;;;;;;17.83;23.33;99598.63;5148343;27;20031;-68
2022/01/25 10:20:45;;;;;;;5.38;4.30;;;;;;;17.79;23.30;99594.59;5155863;27;20030;-65
2022/01/25 10:23:20;;;;;;;5.38;4.57;;;;;;;17.77;23.53;99585.91;5168927;27;20033;-67
2022/01/25 10:25:48;;;;;;;5.15;4.07;;;;;;;17.80;23.44;99591.75;5169089;27;20018;-67
2022/01/25 10:28:15;;;;;;;7.28;4.65;;;;;;;17.81;22.91;99587.25;5168979;27;20031;-66
2022/01/25 10:30:53;;;;;;;8.85;4.35;;;;;;;17.83;23.08;99575.34;5169001;27;20034;-66
2022/01/25 10:33:37;;;;;;;5.70;4.05;;;;;;;17.91;23.32;99566.50;5164922;27;20073;-67
2022/01/25 10:36:20;;;;;;;5.88;4.93;;;;;;;18.00;22.67;99559.31;5158312;27;20014;-65
2022/01/25 10:38:48;;;;;;;6.15;4.35;;;;;;;18.12;22.34;99557.16;5168719;27;20042;-67
2022/01/25 10:41:17;;;;;;;5.25;3.60;;;;;;;18.13;22.87;99548.13;5168831;27;20037;-67
2022/01/25 10:43:44;;;;;;;5.15;4.32;;;;;;;18.08;22.78;99545.09;5166988;27;20010;-67
2022/01/25 10:46:18;;;;;;;4.60;3.88;;;;;;;18.06;23.09;99547.09;5159842;27;20086;-65
2022/01/25 10:48:47;;;;;;;5.63;4.15;;;;;;;18.02;23.18;99535.91;5148722;27;20251;-67
2022/01/25 10:51:25;;;;;;;8.05;4.60;;;;;;;18.02;23.04;99525.19;5163743;27;20007;-64
2022/01/25 10:54:09;;;;;;;7.45;4.60;;;;;;;17.99;23.38;99520.19;5166728;27;20011;-67
2022/01/25 10:56:39;;;;;;;8.88;4.78;;;;;;;17.99;23.72;99520.19;5167139;27;20041;-66
2022/01/25 10:59:07;;;;;;;12.32;5.35;;;;;;;17.95;23.72;99506.28;5164563;27;20019;-65
2022/01/25 11:01:39;;;;;;;9.40;6.03;;;;;;;17.91;24.53;99504.94;5153526;27;20064;-66
2022/01/25 11:04:14;;;;;;;8.48;5.20;;;;;;;17.89;24.02;99503.44;5167240;27;20042;-70
2022/01/25 11:06:40;;;;;;;15.00;6.15;;;;;;;17.88;24.19;99497.22;5166861;27;20045;-67
2022/01/25 11:09:10;;;;;;;12.93;6.60;;;;;;;17.91;24.02;99488.03;5162728;27;20224;-66
2022/01/25 11:11:51;;;;;;;11.35;5.15;;;;;;;17.93;24.31;99484.19;5147360;28;20038;-66
2022/01/25 11:17:03;;;;;;;9.00;5.47;;;;;;;17.92;24.45;99479.00;5172265;27;20199;-67
2022/01/25 11:19:29;;;;;;;11.95;5.32;;;;;;;17.91;24.44;99469.31;5172039;27;20036;-67
2022/01/25 11:21:58;;;;;;;7.47;5.03;;;;;;;17.89;24.41;99472.13;5172358;27;20081;-66
2022/01/25 11:24:26;;;;;;;11.00;5.38;;;;;;;17.89;24.39;99471.31;5172210;27;20015;-66
2022/01/25 11:26:52;;;;;;;8.20;5.32;;;;;;;17.88;24.29;99470.47;5178001;27;20033;-66
2022/01/25 11:29:19;;;;;;;7.10;4.85;;;;;;;17.89;24.21;99466.78;5182118;27;20022;-66
2022/01/25 11:31:57;;;;;;;7.80;4.82;;;;;;;17.90;24.13;99457.75;5193150;27;20250;-66
2022/01/25 11:34:26;;;;;;;7.22;4.25;;;;;;;17.87;24.09;99446.56;5192031;27;20033;-66
2022/01/25 11:36:57;;;;;;;6.05;4.10;;;;;;;17.84;24.34;99437.03;5172089;27;20027;-66
2022/01/25 11:39:26;;;;;;;7.25;5.32;;;;;;;17.80;24.40;99439.19;5164164;27;20027;-67
2022/01/25 11:42:00;;;;;;;7.07;4.75;;;;;;;17.79;24.30;99442.88;5151281;27;20023;-66
2022/01/25 11:44:26;;;;;;;5.20;3.95;;;;;;;17.75;24.36;99433.53;5151050;27;20023;-67
2022/01/25 11:46:58;;;;;;;5.43;4.32;;;;;;;17.77;24.28;99433.34;5151402;27;20019;-66
2022/01/25 11:49:24;;;;;;;5.93;4.47;;;;;;;17.73;24.40;99429.34;5164622;27;20030;-67
2022/01/25 11:52:10;;;;;;;5.00;3.90;;;;;;;17.74;24.13;99428.34;5171645;27;20050;-67
2022/01/25 11:54:36;;;;;;;7.93;4.97;;;;;;;17.74;24.37;99431.00;5150795;27;20213;-67
2022/01/25 11:57:25;;;;;;;6.70;4.35;;;;;;;17.71;24.40;99440.22;5169058;27;20131;-68
2022/01/25 11:59:57;;;;;;;5.90;4.13;;;;;;;17.72;24.50;99441.06;5161185;27;20054;-67
2022/01/25 12:02:39;;;;;;;5.40;4.05;;;;;;;17.68;24.27;99430.72;5171506;27;20025;-67
2022/01/25 12:05:07;;;;;;;4.88;3.83;;;;;;;17.67;24.36;99429.03;5171491;27;20019;-68
2022/01/25 12:07:39;;;;;;;4.70;3.50;;;;;;;17.69;24.32;99424.34;5171521;27;20093;-67
2022/01/25 12:10:45;;;;;;;4.93;3.75;;;;;;;17.66;24.30;99427.38;5171104;27;20030;-67
2022/01/25 12:13:27;;;;;;;4.82;3.72;;;;;;;17.64;24.17;99423.19;5170983;27;20147;-67
2022/01/25 12:16:23;;;;;;;4.63;3.65;;;;;;;17.62;23.86;99431.38;5171275;27;20057;-67
2022/01/25 12:19:05;;;;;;;6.53;3.67;;;;;;;17.62;23.89;99434.06;5171155;27;20023;-67
2022/01/25 12:21:51;;;;;;;4.70;3.70;;;;;;;17.63;23.75;99430.38;5171312;27;20082;-68
2022/01/25 12:24:27;;;;;;;4.80;3.40;;;;;;;17.63;24.35;99430.38;5170039;27;20279;-67
2022/01/25 12:27:02;;;;;;;4.75;3.45;;;;;;;17.62;24.14;99427.88;5171098;27;20192;-67
2022/01/25 12:29:46;;;;;;;5.00;3.28;;;;;;;17.60;23.98;99429.88;5157026;27;20236;-68
2022/01/25 12:32:23;;;;;;;4.90;3.53;;;;;;;17.58;23.95;99430.03;5150255;27;20027;-68
2022/01/25 12:35:08;;;;;;;4.82;3.45;;;;;;;17.57;24.02;99427.53;5150452;27;20044;-67
2022/01/25 12:37:43;;;;;;;7.43;3.40;;;;;;;17.54;24.21;99434.06;5150156;27;20026;-67
2022/01/25 12:40:29;;;;;;;4.72;3.88;;;;;;;17.55;24.17;99427.72;5150141;27;20216;-67
2022/01/25 12:42:57;;;;;;;4.60;4.00;;;;;;;17.56;23.77;99425.88;5149858;27;20027;-67
2022/01/25 12:45:25;;;;;;;3.95;3.55;;;;;;;17.55;23.85;99417.03;5149979;27;20019;-67
2022/01/25 12:47:57;;;;;;;5.13;4.35;;;;;;;17.57;23.79;99412.34;5149932;27;20034;-68
2022/01/25 12:50:23;;;;;;;;;;;;;;;17.44;24.07;99418.19;5150341;27;20252;-67
2022/01/25 12:52:49;;;;;;;5.47;4.07;;;;;;;17.46;23.95;99410.00;5150155;27;19926;-67
2022/01/25 12:55:21;;;;;;;4.93;3.95;;;;;;;17.48;23.94;99411.50;5149796;27;20019;-67
2022/01/25 12:57:51;;;;;;;4.20;3.35;;;;;;;17.49;23.79;99398.97;5149486;27;20034;-66
2022/01/25 13:00:18;;;;;;;4.40;3.63;;;;;;;17.52;23.67;99409.31;5149768;27;20080;-66
2022/01/25 13:02:44;;;;;;;4.97;4.03;;;;;;;17.54;23.43;99402.78;5149609;27;20256;-67
2022/01/25 13:05:14;;;;;;;7.20;4.38;;;;;;;17.58;23.03;99400.59;5160029;27;20085;-67
2022/01/25 13:07:39;;;;;;;5.97;4.00;;;;;;;17.59;23.31;99396.94;5170363;27;20164;-67
2022/01/25 13:10:09;;;;;;;5.07;4.15;;;;;;;17.59;23.41;99394.25;5170363;27;20015;-66
2022/01/25 13:12:37;;;;;;;5.07;3.53;;;;;;;17.58;23.48;99389.91;5170107;27;20026;-65
2022/01/25 13:15:26;;;;;;;4.85;3.80;;;;;;;17.59;22.89;99386.22;5170122;27;20014;-67
2022/01/25 13:17:49;;;;;;;4.43;3.85;;;;;;;17.58;23.19;99384.56;5170031;27;20010;-66
2022/01/25 13:20:15;;;;;;;5.13;3.75;;;;;;;17.60;23.31;99382.56;5158537;27;20041;-66
2022/01/25 13:22:42;;;;;;;4.82;4.25;;;;;;;17.61;23.11;99383.41;5151988;27;20018;-66
2022/01/25 13:25:20;;;;;;;4.57;3.78;;;;;;;17.60;23.16;99377.19;5169938;27;20091;-65
2022/01/25 13:27:51;;;;;;;6.22;4.63;;;;;;;17.61;22.97;99378.06;5169820;27;20135;-65
2022/01/25 13:33:05;;;;;;;5.57;3.97;;;;;;;17.62;23.17;99359.13;5159389;27;20299;-65
2022/01/25 13:35:34;;;;;;;5.60;4.57;;;;;;;17.62;23.17;99355.66;5169570;27;20022;-66